Time;durP1;ratioP1;P1;durP2;ratioP2;P2;SDS_P1;SDS_P2;PMS_P1;PMS_P2;Temp;Humidity;BMP_temperature;BMP_pressure;BME280_temperature;BME280_humidity;BME280_pressure;Samples;Min_cycle;Max_cycle;Signal;HPM_P1;HPM_P2
2023/06/30 00:02:08;;;;;;;6.03;2.83;;;19.80;99.90;;;;;;4994247;28;20577;-81
2023/06/30 00:04:33;;;;;;;3.55;2.53;;;19.70;99.90;;;;;;4994924;28;20045;-83
2023/06/30 00:06:59;;;;;;;5.75;2.75;;;19.70;99.90;;;;;;4995240;28;20096;-82
2023/06/30 00:09:26;;;;;;;5.85;2.80;;;19.70;99.90;;;;;;4997745;28;20042;-81
2023/06/30 00:11:55;;;;;;;5.57;2.83;;;19.60;99.90;;;;;;4998718;28;20030;-82
2023/06/30 00:14:21;;;;;;;5.63;2.97;;;19.60;99.90;;;;;;4997218;28;20042;-82
2023/06/30 00:16:49;;;;;;;5.82;2.97;;;19.50;99.90;;;;;;4999111;28;20022;-81
2023/06/30 00:19:15;;;;;;;5.85;2.90;;;19.50;99.90;;;;;;4995697;28;20621;-82
2023/06/30 00:21:42;;;;;;;4.60;2.75;;;19.50;99.90;;;;;;4998179;28;20220;-82
2023/06/30 00:24:10;;;;;;;7.15;2.92;;;19.40;99.90;;;;;;4998394;28;20521;-82
2023/06/30 00:26:37;;;;;;;4.78;3.17;;;19.40;99.90;;;;;;4997883;28;20027;-82
2023/06/30 00:29:03;;;;;;;4.68;2.85;;;19.40;99.90;;;;;;4999069;28;20026;-82
2023/06/30 00:31:29;;;;;;;6.47;3.00;;;19.30;99.90;;;;;;4997369;28;20098;-80
2023/06/30 00:33:55;;;;;;;5.32;2.90;;;19.30;99.90;;;;;;4980299;28;20088;-82
2023/06/30 00:36:21;;;;;;;5.38;3.40;;;19.30;99.90;;;;;;4997382;28;20069;-81
2023/06/30 00:38:46;;;;;;;5.93;3.10;;;19.20;99.90;;;;;;4997552;28;20028;-81
2023/06/30 00:41:12;;;;;;;12.05;3.53;;;19.10;99.90;;;;;;4999016;28;20066;-81
2023/06/30 00:43:38;;;;;;;4.55;3.10;;;19.10;99.90;;;;;;4997971;28;20049;-81
2023/06/30 00:46:05;;;;;;;5.05;2.83;;;19.10;99.90;;;;;;4998970;28;20034;-82
2023/06/30 00:48:31;;;;;;;6.57;3.00;;;19.00;99.90;;;;;;4998199;28;20049;-82
2023/06/30 00:50:57;;;;;;;5.97;3.10;;;19.00;99.90;;;;;;4997403;28;20136;-82
2023/06/30 00:53:24;;;;;;;5.30;2.90;;;19.00;99.90;;;;;;4998629;28;20102;-82
2023/06/30 00:55:50;;;;;;;5.95;3.10;;;18.90;99.90;;;;;;5001424;28;20049;-82
2023/06/30 00:58:16;;;;;;;4.28;2.80;;;18.90;99.90;;;;;;5000696;28;20029;-82
2023/06/30 01:00:42;;;;;;;3.33;2.70;;;18.90;99.90;;;;;;5001704;28;20034;-82
2023/06/30 01:03:30;;;;;;;6.57;3.33;;;18.80;99.90;;;;;;5001620;28;20037;-82
2023/06/30 01:06:04;;;;;;;5.75;3.15;;;18.80;99.90;;;;;;5001794;28;20034;-83
2023/06/30 01:08:44;;;;;;;6.43;3.35;;;18.80;99.90;;;;;;5001239;28;20041;-82
2023/06/30 01:11:11;;;;;;;5.28;3.03;;;18.80;99.90;;;;;;5002221;28;20037;-81
2023/06/30 01:13:38;;;;;;;8.35;3.63;;;18.80;99.90;;;;;;5001022;28;20030;-82
2023/06/30 01:16:05;;;;;;;5.32;3.15;;;18.80;99.90;;;;;;4985544;28;20042;-82
2023/06/30 01:18:34;;;;;;;6.05;3.47;;;18.70;99.90;;;;;;5002160;28;20054;-83
2023/06/30 01:21:00;;;;;;;11.48;3.90;;;18.70;99.90;;;;;;5001215;28;20030;-83
2023/06/30 01:23:37;;;;;;;8.10;3.80;;;18.70;99.90;;;;;;5001689;28;20035;-81
2023/06/30 01:26:04;;;;;;;7.82;3.92;;;18.70;99.90;;;;;;5002349;28;20053;-82
2023/06/30 01:28:33;;;;;;;5.85;3.65;;;18.70;99.90;;;;;;5002068;28;20026;-82
2023/06/30 01:30:59;;;;;;;6.68;3.78;;;18.70;99.90;;;;;;5002976;28;20097;-82
2023/06/30 01:33:26;;;;;;;8.00;3.90;;;18.70;99.90;;;;;;4980958;28;20098;-82
2023/06/30 01:35:52;;;;;;;5.90;3.60;;;18.70;99.90;;;;;;5001566;28;20082;-82
2023/06/30 01:38:18;;;;;;;6.32;3.50;;;18.70;99.90;;;;;;5002173;28;20029;-82
2023/06/30 01:40:46;;;;;;;7.05;3.45;;;18.70;99.90;;;;;;5001200;28;20045;-82
2023/06/30 01:43:13;;;;;;;4.25;3.35;;;18.60;99.90;;;;;;4999610;28;20173;-82
2023/06/30 01:45:40;;;;;;;6.90;4.40;;;18.70;99.90;;;;;;5001796;28;20050;-82
2023/06/30 01:48:06;;;;;;;5.63;3.78;;;18.60;99.90;;;;;;4999448;28;20031;-82
2023/06/30 01:50:32;;;;;;;5.60;4.30;;;18.60;99.90;;;;;;5001226;28;20026;-82
2023/06/30 01:52:59;;;;;;;8.52;4.15;;;18.60;99.90;;;;;;5000662;28;20034;-82
2023/06/30 01:55:25;;;;;;;5.75;4.22;;;18.60;99.90;;;;;;5000762;28;20106;-82
2023/06/30 01:57:51;;;;;;;7.70;4.00;;;18.60;99.90;;;;;;5002069;28;20426;-81
2023/06/30 02:00:17;;;;;;;7.45;4.50;;;18.60;99.90;;;;;;5000254;28;20041;-82
2023/06/30 02:02:43;;;;;;;6.32;4.75;;;18.60;99.90;;;;;;5001073;28;20082;-82
2023/06/30 02:05:09;;;;;;;5.43;4.28;;;18.60;99.90;;;;;;5001525;28;20080;-82
2023/06/30 02:07:34;;;;;;;7.85;4.10;;;18.60;99.90;;;;;;5000921;28;20061;-82
2023/06/30 02:10:00;;;;;;;7.88;5.20;;;18.60;99.90;;;;;;4997973;28;20482;-81
2023/06/30 02:12:26;;;;;;;6.43;4.22;;;18.60;99.90;;;;;;4997972;28;20735;-84
2023/06/30 02:14:51;;;;;;;9.32;4.50;;;18.60;99.90;;;;;;4999726;28;20497;-82
2023/06/30 02:17:26;;;;;;;7.68;4.25;;;18.60;99.90;;;;;;4999267;28;20113;-82
2023/06/30 02:19:51;;;;;;;11.63;4.63;;;18.60;99.90;;;;;;4998318;28;20083;-82
2023/06/30 02:22:17;;;;;;;5.63;4.63;;;18.60;99.90;;;;;;4998470;28;20098;-82
2023/06/30 02:24:42;;;;;;;7.85;4.45;;;18.50;99.90;;;;;;4998597;28;20114;-82
2023/06/30 02:27:08;;;;;;;8.05;4.50;;;18.60;99.90;;;;;;5001320;28;20034;-82
2023/06/30 02:29:34;;;;;;;6.05;4.55;;;18.50;99.90;;;;;;5000744;28;20030;-82
2023/06/30 02:31:59;;;;;;;8.88;4.75;;;18.50;99.90;;;;;;4999968;28;20040;-82
2023/06/30 02:34:25;;;;;;;6.20;4.60;;;18.50;99.90;;;;;;5000209;28;20093;-82
2023/06/30 02:36:50;;;;;;;5.72;4.70;;;18.50;99.90;;;;;;5000365;28;20026;-82
2023/06/30 02:39:16;;;;;;;5.47;4.50;;;18.50;99.90;;;;;;4998100;28;20345;-83
2023/06/30 02:41:42;;;;;;;7.45;4.85;;;18.50;99.90;;;;;;4999037;28;20065;-82
2023/06/30 02:44:08;;;;;;;7.43;4.60;;;18.50;99.90;;;;;;4997186;28;20088;-82
2023/06/30 02:46:33;;;;;;;9.25;5.35;;;18.50;99.90;;;;;;4996084;28;20031;-82
2023/06/30 02:48:59;;;;;;;7.45;5.15;;;18.50;99.90;;;;;;4994484;28;20079;-82
2023/06/30 02:51:24;;;;;;;8.57;5.00;;;18.50;99.90;;;;;;4993984;28;20038;-82
2023/06/30 02:53:50;;;;;;;6.03;5.00;;;18.50;99.90;;;;;;4991127;28;20759;-82
2023/06/30 02:56:17;;;;;;;6.57;5.30;;;18.50;99.90;;;;;;4991513;28;20077;-82
2023/06/30 02:58:42;;;;;;;7.88;4.80;;;18.50;99.90;;;;;;4996631;28;20217;-82
2023/06/30 03:01:08;;;;;;;9.00;5.03;;;18.50;99.90;;;;;;4998070;28;20638;-82
2023/06/30 03:03:33;;;;;;;6.80;5.18;;;18.50;99.90;;;;;;4998886;28;20506;-82
2023/06/30 03:05:59;;;;;;;8.65;4.90;;;18.50;99.90;;;;;;5001388;28;20031;-82
2023/06/30 03:08:24;;;;;;;6.85;5.05;;;18.50;99.90;;;;;;4997739;28;20041;-82
2023/06/30 03:10:50;;;;;;;6.20;4.53;;;18.50;99.90;;;;;;4997839;28;20041;-82
2023/06/30 03:13:15;;;;;;;8.95;4.93;;;18.50;99.90;;;;;;4999404;28;20023;-83
2023/06/30 03:15:41;;;;;;;5.28;4.50;;;18.40;99.90;;;;;;4999429;28;20097;-83
2023/06/30 03:18:06;;;;;;;7.78;4.82;;;18.50;99.90;;;;;;4999890;28;20030;-82
2023/06/30 03:20:32;;;;;;;9.00;5.03;;;18.50;99.90;;;;;;4996916;28;20034;-82
2023/06/30 03:22:57;;;;;;;9.68;5.40;;;18.50;99.90;;;;;;4998634;28;20034;-82
2023/06/30 03:25:23;;;;;;;8.05;5.63;;;18.40;99.90;;;;;;4998117;28;20507;-82
2023/06/30 03:27:48;;;;;;;7.88;5.18;;;18.40;99.90;;;;;;4999328;28;20022;-82
2023/06/30 03:30:16;;;;;;;8.20;5.53;;;18.40;99.90;;;;;;4999445;28;20034;-82
2023/06/30 03:32:41;;;;;;;8.77;5.43;;;18.40;99.90;;;;;;4998967;28;20041;-82
2023/06/30 03:35:07;;;;;;;6.78;4.90;;;18.30;99.90;;;;;;4998488;28;20725;-82
2023/06/30 03:37:33;;;;;;;6.90;4.78;;;18.30;99.90;;;;;;4998929;28;20033;-82
2023/06/30 03:40:00;;;;;;;6.90;5.00;;;18.30;99.90;;;;;;4998161;28;20041;-82
2023/06/30 03:42:26;;;;;;;8.18;5.40;;;18.20;99.90;;;;;;4998303;28;20022;-82
2023/06/30 03:44:52;;;;;;;8.88;5.85;;;18.20;99.90;;;;;;4998645;28;20037;-82
2023/06/30 03:47:17;;;;;;;7.65;5.28;;;18.20;99.90;;;;;;4999361;28;20105;-82
2023/06/30 03:49:43;;;;;;;8.75;6.10;;;18.10;99.90;;;;;;4998923;28;20030;-81
2023/06/30 03:52:08;;;;;;;7.22;5.30;;;18.10;99.90;;;;;;4999353;28;20030;-82
2023/06/30 03:54:34;;;;;;;10.23;5.70;;;18.10;99.90;;;;;;4999209;28;20042;-82
2023/06/30 03:57:00;;;;;;;8.60;5.07;;;18.00;99.90;;;;;;4997787;28;20057;-82
2023/06/30 03:59:25;;;;;;;7.57;5.30;;;18.10;99.90;;;;;;4996500;28;20521;-82
2023/06/30 04:01:51;;;;;;;9.50;6.05;;;18.00;99.90;;;;;;4996920;28;20022;-82
2023/06/30 04:04:16;;;;;;;10.00;5.90;;;18.00;99.90;;;;;;4997287;28;20041;-82
2023/06/30 04:06:44;;;;;;;9.30;5.70;;;18.00;99.90;;;;;;4994652;28;20037;-82
2023/06/30 04:09:09;;;;;;;8.25;5.68;;;18.00;99.90;;;;;;4978407;28;20637;-82
2023/06/30 04:11:35;;;;;;;8.52;6.03;;;18.00;99.90;;;;;;4996633;28;20045;-82
2023/06/30 04:14:00;;;;;;;10.18;6.25;;;18.00;99.90;;;;;;4999188;28;20030;-81
2023/06/30 04:16:26;;;;;;;10.02;7.10;;;18.10;99.90;;;;;;4995326;28;20358;-81
2023/06/30 04:18:53;;;;;;;13.25;9.18;;;18.10;99.90;;;;;;4991571;28;20526;-81
2023/06/30 04:21:19;;;;;;;14.38;7.90;;;18.10;99.90;;;;;;4990107;28;20130;-82
2023/06/30 04:23:44;;;;;;;11.05;7.90;;;18.10;99.90;;;;;;4992075;28;20081;-82
2023/06/30 04:26:10;;;;;;;13.63;8.52;;;18.10;99.90;;;;;;4992520;28;20066;-82
2023/06/30 04:28:36;;;;;;;11.50;8.32;;;18.10;99.90;;;;;;4992332;28;20026;-83
2023/06/30 04:31:03;;;;;;;12.57;8.70;;;18.10;99.90;;;;;;4995293;28;21929;-82
2023/06/30 04:33:29;;;;;;;13.38;9.13;;;18.10;99.90;;;;;;4999188;28;20030;-82
2023/06/30 04:35:54;;;;;;;11.02;8.70;;;18.10;99.90;;;;;;5001129;28;20040;-82
2023/06/30 04:38:20;;;;;;;12.40;9.23;;;18.10;99.90;;;;;;5001875;28;20030;-81
2023/06/30 04:40:46;;;;;;;13.65;8.35;;;18.10;99.90;;;;;;5000880;28;20677;-81
2023/06/30 04:43:12;;;;;;;11.50;8.80;;;18.10;99.90;;;;;;5002703;28;20442;-81
2023/06/30 04:45:41;;;;;;;14.35;9.35;;;18.10;99.90;;;;;;5001431;28;20113;-81
2023/06/30 04:48:10;;;;;;;12.32;9.40;;;18.10;99.90;;;;;;5001370;28;20031;-81
2023/06/30 04:50:36;;;;;;;12.00;9.40;;;18.10;99.90;;;;;;5000598;28;20052;-80
2023/06/30 04:53:01;;;;;;;13.50;9.32;;;18.20;99.90;;;;;;5001134;28;20643;-81
2023/06/30 04:55:27;;;;;;;15.27;9.90;;;18.20;99.90;;;;;;5001596;28;20493;-80
2023/06/30 04:57:56;;;;;;;15.73;10.18;;;18.20;99.90;;;;;;4994038;28;20018;-81
2023/06/30 05:00:23;;;;;;;13.23;9.85;;;18.10;99.90;;;;;;4971726;28;20104;-81
2023/06/30 05:02:49;;;;;;;16.60;10.52;;;18.10;99.90;;;;;;4988966;28;20109;-82
2023/06/30 05:05:15;;;;;;;15.55;10.85;;;18.10;99.90;;;;;;4990652;28;20031;-82
2023/06/30 05:07:41;;;;;;;17.15;11.02;;;18.10;99.90;;;;;;4987588;28;20030;-81
2023/06/30 05:10:07;;;;;;;15.32;10.63;;;18.00;99.90;;;;;;4994367;28;20109;-82
2023/06/30 05:12:32;;;;;;;13.88;10.43;;;18.00;99.90;;;;;;4992479;28;20087;-82
2023/06/30 05:14:58;;;;;;;16.27;9.93;;;18.00;99.90;;;;;;4990270;28;20154;-82
2023/06/30 05:17:23;;;;;;;13.60;10.10;;;18.00;99.90;;;;;;4992795;28;20072;-82
2023/06/30 05:19:49;;;;;;;14.93;10.60;;;18.00;99.90;;;;;;4992140;28;20034;-82
2023/06/30 05:22:15;;;;;;;13.35;10.20;;;18.00;99.90;;;;;;4991213;28;20080;-82
2023/06/30 05:24:40;;;;;;;16.67;11.18;;;18.00;99.90;;;;;;4992064;28;20034;-81
2023/06/30 05:27:06;;;;;;;14.32;10.35;;;18.00;99.90;;;;;;4988536;28;20128;-82
2023/06/30 05:29:32;;;;;;;14.40;11.13;;;18.00;99.90;;;;;;4984716;28;20034;-82
2023/06/30 05:31:57;;;;;;;14.50;10.48;;;18.10;99.90;;;;;;4976211;28;20058;-82
2023/06/30 05:34:23;;;;;;;16.33;10.63;;;18.10;99.90;;;;;;4987774;28;20076;-83
2023/06/30 05:36:49;;;;;;;15.35;10.90;;;18.10;99.90;;;;;;4987564;28;20103;-82
2023/06/30 05:39:14;;;;;;;15.70;11.50;;;18.20;99.90;;;;;;4989462;28;20034;-82
2023/06/30 05:41:40;;;;;;;14.00;10.45;;;18.20;99.90;;;;;;4985564;28;20034;-83
2023/06/30 05:44:09;;;;;;;13.57;10.73;;;18.20;99.90;;;;;;4981641;28;20029;-85
2023/06/30 05:46:37;;;;;;;15.95;10.95;;;18.20;99.90;;;;;;4987326;28;20037;-85
2023/06/30 05:49:05;;;;;;;13.45;11.00;;;18.30;99.90;;;;;;4986001;28;20046;-84
2023/06/30 05:51:35;;;;;;;16.88;11.65;;;18.40;99.90;;;;;;4988674;28;20045;-85
2023/06/30 05:54:04;;;;;;;16.75;10.63;;;18.40;99.90;;;;;;4989114;28;20034;-85
2023/06/30 05:56:30;;;;;;;18.85;12.38;;;18.50;99.90;;;;;;4987738;28;20610;-85
2023/06/30 05:58:56;;;;;;;18.63;13.00;;;18.50;99.90;;;;;;4987707;28;20110;-85
2023/06/30 06:01:22;;;;;;;21.33;12.98;;;18.60;99.90;;;;;;4988280;28;20064;-85
2023/06/30 06:03:48;;;;;;;21.83;13.10;;;18.60;99.90;;;;;;4987368;28;20131;-85
2023/06/30 06:06:13;;;;;;;19.60;13.20;;;18.60;99.90;;;;;;4989246;28;20395;-85
2023/06/30 06:08:45;;;;;;;17.58;13.50;;;18.60;99.90;;;;;;4988568;28;20038;-86
2023/06/30 06:11:11;;;;;;;16.50;12.43;;;18.70;99.90;;;;;;4987225;28;20041;-85
2023/06/30 06:13:37;;;;;;;16.65;12.90;;;18.70;99.90;;;;;;4986409;28;20030;-85
2023/06/30 06:16:04;;;;;;;17.80;11.95;;;18.70;99.90;;;;;;4987679;28;20049;-84
2023/06/30 06:18:30;;;;;;;18.13;13.82;;;18.60;99.90;;;;;;4987457;28;20057;-85
2023/06/30 06:20:57;;;;;;;22.35;14.15;;;18.60;99.90;;;;;;4982302;28;20121;-84
2023/06/30 06:23:23;;;;;;;17.70;13.77;;;18.60;99.90;;;;;;4978022;28;20034;-84
2023/06/30 06:25:49;;;;;;;18.40;12.88;;;18.60;99.90;;;;;;4985521;28;20041;-84
2023/06/30 06:28:15;;;;;;;17.83;13.48;;;18.50;99.90;;;;;;4985530;28;20026;-84
2023/06/30 06:30:40;;;;;;;19.33;13.20;;;18.60;99.90;;;;;;4964790;28;20143;-84
2023/06/30 06:33:06;;;;;;;18.15;13.40;;;18.60;99.90;;;;;;4982116;28;20039;-85
2023/06/30 06:35:33;;;;;;;20.58;14.52;;;18.50;99.90;;;;;;4984447;28;20590;-84
2023/06/30 06:37:59;;;;;;;18.17;13.13;;;18.50;99.90;;;;;;4986859;28;20077;-84
2023/06/30 06:40:25;;;;;;;19.10;14.32;;;18.50;99.90;;;;;;4990800;28;20798;-84
2023/06/30 06:42:50;;;;;;;23.33;15.48;;;18.50;99.90;;;;;;4988256;28;20030;-85
2023/06/30 06:45:17;;;;;;;19.30;13.85;;;18.50;99.90;;;;;;4989898;28;20030;-84
2023/06/30 06:48:24;;;;;;;20.60;14.70;;;18.50;99.90;;;;;;4971494;28;20034;-85
2023/06/30 06:50:54;;;;;;;22.92;15.15;;;18.50;99.90;;;;;;4985292;28;20054;-85
2023/06/30 06:53:22;;;;;;;24.15;14.85;;;18.50;99.90;;;;;;4986897;28;20173;-85
2023/06/30 06:55:52;;;;;;;19.73;13.85;;;18.50;99.90;;;;;;4986102;28;20039;-85
2023/06/30 06:58:18;;;;;;;22.67;15.10;;;18.50;99.90;;;;;;4987965;28;20634;-84
2023/06/30 07:00:46;;;;;;;22.50;15.50;;;18.50;99.90;;;;;;4988620;28;20845;-84
2023/06/30 07:03:12;;;;;;;23.17;16.48;;;18.50;99.90;;;;;;4987006;28;20440;-84
2023/06/30 07:05:39;;;;;;;23.35;16.23;;;18.50;99.90;;;;;;4989373;28;20109;-84
2023/06/30 07:08:06;;;;;;;24.42;15.93;;;18.50;99.90;;;;;;4990740;28;20061;-84
2023/06/30 07:10:32;;;;;;;24.17;17.05;;;18.40;99.90;;;;;;4988714;28;20035;-83
2023/06/30 07:12:57;;;;;;;24.17;17.88;;;18.40;99.90;;;;;;4988068;28;20061;-84
2023/06/30 07:15:24;;;;;;;25.88;18.70;;;18.40;99.90;;;;;;4989430;28;20054;-84
2023/06/30 07:17:49;;;;;;;23.67;16.45;;;18.40;99.90;;;;;;4988809;28;20034;-83
2023/06/30 07:20:15;;;;;;;22.70;18.08;;;18.40;99.90;;;;;;4987886;28;20449;-83
2023/06/30 07:22:40;;;;;;;25.83;18.25;;;18.40;99.90;;;;;;4987750;28;20717;-83
2023/06/30 07:25:07;;;;;;;24.52;18.45;;;18.40;99.90;;;;;;4989279;28;20042;-83
2023/06/30 07:27:35;;;;;;;26.48;18.38;;;18.40;99.90;;;;;;4989305;28;20022;-83
2023/06/30 07:30:01;;;;;;;23.27;17.83;;;18.40;99.90;;;;;;4987991;28;20035;-83
2023/06/30 07:32:26;;;;;;;24.58;19.02;;;18.40;99.90;;;;;;4987053;28;20033;-83
2023/06/30 07:34:52;;;;;;;26.20;19.80;;;18.50;99.90;;;;;;4988652;28;20133;-84
2023/06/30 07:37:17;;;;;;;25.63;19.63;;;18.50;99.90;;;;;;4985634;28;20034;-84
2023/06/30 07:39:43;;;;;;;25.05;18.88;;;18.60;99.90;;;;;;4987340;28;20072;-83
2023/06/30 07:42:08;;;;;;;29.85;20.70;;;18.60;99.90;;;;;;4988989;28;20112;-83
2023/06/30 07:44:34;;;;;;;27.30;19.95;;;18.70;99.90;;;;;;4988341;28;20037;-83
2023/06/30 07:47:00;;;;;;;28.35;20.38;;;18.70;99.90;;;;;;4986029;28;20118;-83
2023/06/30 07:49:26;;;;;;;31.52;21.83;;;18.70;99.90;;;;;;4984954;28;20077;-83
2023/06/30 07:51:51;;;;;;;28.63;21.30;;;18.80;99.90;;;;;;4986650;28;20043;-83
2023/06/30 07:54:17;;;;;;;32.03;22.75;;;18.80;99.90;;;;;;4986777;28;20505;-84
2023/06/30 07:56:44;;;;;;;32.03;21.95;;;18.80;99.90;;;;;;4986993;28;20030;-84
2023/06/30 07:59:09;;;;;;;27.67;20.17;;;18.90;99.90;;;;;;4984696;28;20549;-83
2023/06/30 08:01:35;;;;;;;28.77;20.02;;;19.00;99.90;;;;;;4987533;28;20034;-83
2023/06/30 08:04:00;;;;;;;27.20;19.98;;;19.00;99.90;;;;;;4993249;28;20073;-83
2023/06/30 08:06:26;;;;;;;28.60;20.05;;;19.00;99.90;;;;;;4991503;28;20096;-83
2023/06/30 08:08:51;;;;;;;31.58;22.35;;;19.10;99.90;;;;;;4991795;28;20046;-84
2023/06/30 08:11:17;;;;;;;30.50;21.45;;;19.10;99.90;;;;;;4992418;28;21414;-83
2023/06/30 08:13:43;;;;;;;31.77;21.55;;;19.20;99.90;;;;;;4986883;28;20837;-84
2023/06/30 08:16:08;;;;;;;33.20;22.50;;;19.20;99.90;;;;;;4982869;28;20114;-84
2023/06/30 08:18:34;;;;;;;28.90;22.17;;;19.30;99.90;;;;;;4984626;28;20151;-84
2023/06/30 08:20:59;;;;;;;28.92;20.98;;;19.30;99.90;;;;;;4982025;28;20080;-83
2023/06/30 08:23:26;;;;;;;26.52;20.42;;;19.30;99.90;;;;;;4981881;28;20038;-84
2023/06/30 08:25:54;;;;;;;28.55;21.35;;;19.40;99.90;;;;;;4981164;28;20048;-84
2023/06/30 08:28:20;;;;;;;31.65;20.88;;;19.50;99.90;;;;;;4962958;28;20026;-84
2023/06/30 08:30:46;;;;;;;28.27;20.88;;;19.50;99.90;;;;;;4960728;28;20038;-84
2023/06/30 08:33:11;;;;;;;27.85;20.30;;;19.60;99.90;;;;;;4981138;28;20030;-83
2023/06/30 08:35:37;;;;;;;29.25;19.60;;;19.70;99.90;;;;;;4983619;28;20050;-84
2023/06/30 08:38:02;;;;;;;28.75;19.58;;;19.70;99.90;;;;;;4986883;28;20112;-84
2023/06/30 08:40:30;;;;;;;23.52;18.13;;;19.80;99.90;;;;;;4985261;28;20023;-83
2023/06/30 08:42:59;;;;;;;23.35;17.40;;;19.80;99.90;;;;;;4987388;28;20230;-83
2023/06/30 08:45:28;;;;;;;25.00;18.58;;;19.90;99.90;;;;;;4983768;28;20037;-83
2023/06/30 08:47:59;;;;;;;24.75;17.98;;;19.90;99.90;;;;;;4983542;28;20577;-83
2023/06/30 08:50:25;;;;;;;25.20;16.83;;;20.00;99.90;;;;;;4984280;28;20054;-83
2023/06/30 08:52:52;;;;;;;24.27;17.23;;;20.10;99.90;;;;;;4980308;28;20062;-84
2023/06/30 08:55:17;;;;;;;22.50;16.85;;;20.10;99.90;;;;;;4984305;28;20204;-84
2023/06/30 08:57:44;;;;;;;24.23;16.45;;;20.30;99.90;;;;;;4981988;28;20041;-73
2023/06/30 09:00:10;;;;;;;25.45;16.38;;;20.30;99.90;;;;;;4981065;28;20024;-83
2023/06/30 09:02:37;;;;;;;21.50;15.60;;;20.40;99.90;;;;;;4982510;28;20030;-83
2023/06/30 09:05:04;;;;;;;22.05;15.40;;;20.50;99.90;;;;;;4980709;28;20044;-83
2023/06/30 09:07:37;;;;;;;21.10;14.80;;;20.50;99.90;;;;;;4979845;28;20062;-84
2023/06/30 09:10:05;;;;;;;22.98;16.08;;;20.60;99.90;;;;;;4980062;28;20099;-84
2023/06/30 09:12:31;;;;;;;27.13;16.45;;;20.70;99.90;;;;;;4981140;28;20027;-84
2023/06/30 09:15:00;;;;;;;22.67;17.02;;;20.70;99.90;;;;;;4979855;28;20053;-83
2023/06/30 09:17:26;;;;;;;23.95;16.63;;;20.80;99.90;;;;;;4979068;28;21348;-83
2023/06/30 09:19:52;;;;;;;25.45;17.35;;;20.90;99.90;;;;;;4978510;28;20129;-84
2023/06/30 09:22:20;;;;;;;24.02;16.77;;;20.90;99.90;;;;;;4981903;28;20482;-84
2023/06/30 09:24:47;;;;;;;22.73;15.43;;;21.10;99.90;;;;;;4982533;28;20038;-82
2023/06/30 09:27:13;;;;;;;23.45;16.27;;;21.30;99.90;;;;;;4979561;28;20026;-83
2023/06/30 09:29:38;;;;;;;21.77;14.98;;;21.50;99.90;;;;;;4980205;28;20081;-83
2023/06/30 09:32:05;;;;;;;21.17;15.68;;;21.70;99.90;;;;;;4978375;28;20137;-84
2023/06/30 09:34:31;;;;;;;22.85;16.02;;;21.80;99.90;;;;;;4978033;28;20026;-83
2023/06/30 09:36:57;;;;;;;22.02;15.80;;;21.90;99.90;;;;;;4978894;28;20061;-83
2023/06/30 09:39:23;;;;;;;18.95;14.98;;;22.20;99.90;;;;;;4977175;28;20662;-84
2023/06/30 09:41:50;;;;;;;19.75;14.63;;;22.30;99.90;;;;;;4976135;28;20040;-83
2023/06/30 09:44:20;;;;;;;21.20;15.60;;;22.40;99.90;;;;;;4976843;28;20038;-83
2023/06/30 09:46:50;;;;;;;21.25;14.00;;;22.70;99.90;;;;;;4977749;28;20034;-84
2023/06/30 09:49:22;;;;;;;19.75;15.80;;;22.80;99.90;;;;;;4978068;28;20045;-83
2023/06/30 09:51:47;;;;;;;20.75;15.38;;;23.10;99.90;;;;;;4977679;28;20065;-84
2023/06/30 09:54:16;;;;;;;21.52;15.82;;;23.20;99.90;;;;;;4958949;28;20572;-84
2023/06/30 09:56:42;;;;;;;22.45;15.63;;;23.30;99.90;;;;;;4977404;28;20026;-84
2023/06/30 09:59:08;;;;;;;21.75;15.75;;;23.50;99.90;;;;;;4977267;28;20038;-84
2023/06/30 10:01:34;;;;;;;24.65;18.88;;;23.60;99.90;;;;;;4977508;28;21538;-84
2023/06/30 10:04:00;;;;;;;26.67;20.42;;;23.50;99.90;;;;;;4980893;28;20034;-84
2023/06/30 10:06:27;;;;;;;27.65;20.58;;;23.40;99.90;;;;;;4987969;28;20995;-84
2023/06/30 10:08:56;;;;;;;23.70;18.75;;;23.20;99.90;;;;;;4987431;28;20034;-84
2023/06/30 10:11:23;;;;;;;26.08;20.05;;;23.10;99.90;;;;;;4987803;28;20077;-84
2023/06/30 10:13:53;;;;;;;24.92;19.42;;;22.90;99.90;;;;;;4988258;28;20041;-83
2023/06/30 10:16:21;;;;;;;25.08;18.77;;;22.60;99.90;;;;;;4989416;28;20069;-77
2023/06/30 10:18:49;;;;;;;23.02;18.58;;;22.40;99.90;;;;;;4984716;28;20116;-76
2023/06/30 10:21:15;;;;;;;25.38;18.98;;;22.10;99.90;;;;;;4987377;28;20037;-75
2023/06/30 10:23:43;;;;;;;25.65;19.40;;;21.90;99.90;;;;;;4985957;28;20023;-75
2023/06/30 10:26:12;;;;;;;25.95;18.05;;;21.60;99.90;;;;;;4983758;28;20113;-75
2023/06/30 10:28:38;;;;;;;27.15;17.25;;;21.20;99.90;;;;;;4989661;28;20045;-85
2023/06/30 10:31:04;;;;;;;22.42;16.45;;;20.90;99.90;;;;;;4991759;28;20030;-84
2023/06/30 10:33:30;;;;;;;28.17;18.73;;;20.50;99.90;;;;;;4990151;28;20029;-83
2023/06/30 10:35:57;;;;;;;24.23;18.70;;;20.30;99.90;;;;;;5013463;23;20038;-86
2023/06/30 10:38:23;;;;;;;23.85;17.30;;;20.10;99.90;;;;;;5006828;28;20048;-86
2023/06/30 10:40:48;;;;;;;22.27;16.10;;;19.90;99.90;;;;;;4990463;28;20034;-85
2023/06/30 10:43:14;;;;;;;25.70;17.13;;;19.80;99.90;;;;;;4990901;28;20027;-86
2023/06/30 10:46:08;;;;;;;22.90;16.95;;;19.80;99.90;;;;;;4989509;28;20128;-85
2023/06/30 10:48:34;;;;;;;21.60;16.05;;;19.80;99.90;;;;;;4991045;28;20742;-86
2023/06/30 10:51:03;;;;;;;21.48;15.60;;;19.70;99.90;;;;;;4990493;28;20038;-82
2023/06/30 10:53:29;;;;;;;23.08;14.95;;;19.70;99.90;;;;;;4983524;28;20026;-85
2023/06/30 10:55:56;;;;;;;19.15;14.50;;;19.80;99.90;;;;;;4988781;28;20053;-77
2023/06/30 10:58:23;;;;;;;21.98;13.93;;;19.80;99.90;;;;;;4987963;28;20510;-78
2023/06/30 11:01:06;;;;;;;19.30;13.63;;;19.80;99.90;;;;;;4988925;28;20040;-79
2023/06/30 11:03:56;;;;;;;16.33;13.05;;;19.90;99.90;;;;;;4989920;28;20529;-78
2023/06/30 11:06:23;;;;;;;15.27;11.75;;;20.00;99.90;;;;;;4989857;28;20065;-78
2023/06/30 11:09:03;;;;;;;16.02;12.32;;;20.10;99.90;;;;;;4989447;28;20022;-78
2023/06/30 11:11:29;;;;;;;17.13;11.75;;;20.20;99.90;;;;;;4988916;28;20030;-78
2023/06/30 11:14:07;;;;;;;14.73;10.95;;;20.30;99.90;;;;;;4989355;28;21346;-79
2023/06/30 11:17:02;;;;;;;16.67;12.27;;;20.30;99.90;;;;;;4988078;28;20470;-79
2023/06/30 11:19:27;;;;;;;16.83;11.75;;;20.30;99.90;;;;;;4988009;28;20042;-77
2023/06/30 11:22:21;;;;;;;14.00;10.85;;;20.30;99.90;;;;;;4989993;28;20037;-78
2023/06/30 11:24:47;;;;;;;16.38;11.43;;;20.30;99.90;;;;;;4988905;28;20057;-83
2023/06/30 11:27:14;;;;;;;14.02;10.77;;;20.20;99.90;;;;;;4990615;28;20034;-80
2023/06/30 11:29:40;;;;;;;14.55;10.95;;;20.30;99.90;;;;;;4983527;28;20072;-81
2023/06/30 11:32:06;;;;;;;14.50;11.43;;;20.30;99.90;;;;;;4988558;28;20557;-81
2023/06/30 11:34:32;;;;;;;14.57;11.07;;;20.30;99.90;;;;;;4988479;28;20109;-80
2023/06/30 11:36:58;;;;;;;15.65;11.27;;;20.30;99.90;;;;;;4988297;28;20066;-80
2023/06/30 11:39:24;;;;;;;16.15;11.48;;;20.30;99.90;;;;;;4989343;28;20168;-80
2023/06/30 11:41:49;;;;;;;16.27;11.25;;;20.40;99.90;;;;;;4990069;28;20038;-80
2023/06/30 11:44:15;;;;;;;15.68;12.15;;;20.40;99.90;;;;;;4988472;28;20117;-77
2023/06/30 11:46:40;;;;;;;18.40;12.43;;;20.60;99.90;;;;;;4987845;28;21476;-78
2023/06/30 11:49:06;;;;;;;18.55;12.65;;;20.90;99.90;;;;;;4986776;28;20033;-77
2023/06/30 11:51:32;;;;;;;18.90;14.07;;;21.20;99.90;;;;;;4990001;28;20500;-78
2023/06/30 11:53:58;;;;;;;17.02;13.00;;;21.50;99.90;;;;;;4987041;28;20149;-74
2023/06/30 11:56:24;;;;;;;16.10;12.43;;;21.60;99.90;;;;;;4988972;28;21398;-77
2023/06/30 11:58:50;;;;;;;17.08;12.52;;;21.60;99.90;;;;;;4988092;28;20026;-78
2023/06/30 12:01:16;;;;;;;18.52;13.07;;;21.80;99.90;;;;;;4987610;28;20125;-78
2023/06/30 12:03:41;;;;;;;19.35;12.77;;;21.90;99.90;;;;;;4978635;28;20030;-78
2023/06/30 12:06:07;;;;;;;15.68;11.10;;;21.90;99.90;;;;;;4978420;28;20761;-79
2023/06/30 12:08:37;;;;;;;15.05;11.48;;;22.00;99.90;;;;;;4978788;28;20037;-78
2023/06/30 12:11:07;;;;;;;16.48;11.75;;;22.10;99.90;;;;;;4978690;28;20038;-78
2023/06/30 12:13:32;;;;;;;15.63;11.55;;;22.50;99.90;;;;;;4976463;28;20038;-78
2023/06/30 12:16:00;;;;;;;15.43;11.25;;;22.70;99.90;;;;;;4977185;28;20195;-78
2023/06/30 12:18:36;;;;;;;16.00;11.95;;;22.80;99.90;;;;;;4977369;28;20771;-79
2023/06/30 12:21:03;;;;;;;16.23;12.07;;;22.90;99.90;;;;;;4975068;28;20121;-79
2023/06/30 12:23:29;;;;;;;16.40;11.98;;;23.00;99.90;;;;;;4975965;28;20120;-78
2023/06/30 12:25:56;;;;;;;16.40;11.50;;;23.40;99.90;;;;;;4976170;28;20932;-79
2023/06/30 12:28:22;;;;;;;16.55;11.82;;;23.50;99.90;;;;;;4979223;28;20505;-79
2023/06/30 12:30:48;;;;;;;17.15;12.05;;;23.50;99.90;;;;;;4977856;28;20084;-78
2023/06/30 12:33:19;;;;;;;19.38;13.52;;;23.40;99.90;;;;;;4977700;28;20030;-79